createdAt,value
2019-03-13T00:01:35.319Z,99518.70
2019-03-13T00:04:05.063Z,99531.85
2019-03-13T00:06:34.891Z,99538.50
2019-03-13T00:09:06.336Z,99545.38
2019-03-13T00:11:36.968Z,99563.52
2019-03-13T00:14:06.490Z,99564.61
2019-03-13T00:16:36.001Z,99570.68
2019-03-13T00:19:05.568Z,99569.69
2019-03-13T00:21:35.072Z,99568.63
2019-03-13T00:24:04.724Z,99572.45
2019-03-13T00:26:34.222Z,99576.19
2019-03-13T00:29:03.721Z,99572.53
2019-03-13T00:31:33.223Z,99581.19
2019-03-13T00:34:02.751Z,99579.58
2019-03-13T00:36:32.253Z,99588.27
2019-03-13T00:39:01.751Z,99580.25
2019-03-13T00:41:32.874Z,99585.97
2019-03-13T00:44:02.379Z,99591.34
2019-03-13T00:46:31.872Z,99586.23
2019-03-13T00:49:01.371Z,99587.55
2019-03-13T00:51:30.867Z,99588.27
2019-03-13T00:54:00.377Z,99593.27
2019-03-13T00:56:29.868Z,99595.76
2019-03-13T00:58:59.363Z,99595.72
2019-03-13T01:01:46.866Z,99590.47
2019-03-13T01:04:38.844Z,99596.66
2019-03-13T01:07:09.992Z,99598.81
2019-03-13T01:09:39.523Z,99603.33
2019-03-13T01:12:11.540Z,99608.70
2019-03-13T01:14:40.211Z,99598.11
2019-03-13T01:17:09.722Z,99605.70
2019-03-13T01:19:39.254Z,99607.63
2019-03-13T01:22:11.603Z,99608.99
2019-03-13T01:24:39.996Z,99616.45
2019-03-13T01:27:09.501Z,99610.06
2019-03-13T01:29:38.999Z,99620.52
2019-03-13T01:32:26.319Z,99622.30
2019-03-13T01:35:09.781Z,99627.87
2019-03-13T01:37:39.287Z,99615.89
2019-03-13T01:40:10.140Z,99633.30
2019-03-13T01:42:39.635Z,99621.30
2019-03-13T01:45:09.560Z,99625.70
2019-03-13T01:47:39.065Z,99624.91
2019-03-13T01:50:08.962Z,99613.55
2019-03-13T01:52:38.453Z,99629.91
2019-03-13T01:55:08.039Z,99634.54
2019-03-13T01:57:37.602Z,99638.27
2019-03-13T02:00:09.756Z,99634.44
2019-03-13T02:02:39.321Z,99636.47
2019-03-13T02:05:08.895Z,99639.17
2019-03-13T02:07:38.393Z,99639.70
2019-03-13T02:10:08.906Z,99645.67
2019-03-13T02:12:38.396Z,99636.02
2019-03-13T02:15:08.939Z,99636.09
2019-03-13T02:17:38.428Z,99639.61
2019-03-13T02:20:08.523Z,99644.90
2019-03-13T02:22:38.038Z,99636.36
2019-03-13T02:25:07.773Z,99641.05
2019-03-13T02:27:37.264Z,99626.45
2019-03-13T02:30:07.444Z,99633.75
2019-03-13T02:32:38.019Z,99633.23
2019-03-13T02:35:07.596Z,99627.44
2019-03-13T02:37:37.114Z,99626.23
2019-03-13T02:40:07.981Z,99634.54
2019-03-13T02:42:37.474Z,99625.39
2019-03-13T02:45:08.136Z,99616.38
2019-03-13T02:47:37.629Z,99605.34
2019-03-13T02:50:07.449Z,99606.76
2019-03-13T02:52:36.948Z,99593.94
2019-03-13T02:55:06.861Z,99598.56
2019-03-13T02:57:36.360Z,99598.37
2019-03-13T03:00:07.788Z,99590.55
2019-03-13T03:02:46.641Z,99600.72
2019-03-13T03:05:16.233Z,99591.33
2019-03-13T03:07:46.333Z,99587.97
2019-03-13T03:10:15.886Z,99597.55
2019-03-13T03:12:45.382Z,99583.27
2019-03-13T03:15:16.744Z,99599.00
2019-03-13T03:17:46.305Z,99602.55
2019-03-13T03:20:17.568Z,99604.89
2019-03-13T03:22:47.056Z,99595.89
2019-03-13T03:25:16.998Z,99596.70
2019-03-13T03:27:46.614Z,99591.73
2019-03-13T03:30:18.950Z,99594.20
2019-03-13T03:32:48.437Z,99596.13
2019-03-13T03:35:17.970Z,99602.02
2019-03-13T03:37:47.441Z,99591.98
2019-03-13T03:40:21.670Z,99597.73
2019-03-13T03:42:48.254Z,99590.55
2019-03-13T03:45:17.838Z,99594.01
2019-03-13T03:47:47.675Z,99601.08
2019-03-13T03:50:17.444Z,99588.08
2019-03-13T03:52:47.019Z,99574.37
2019-03-13T03:55:16.666Z,99573.98
2019-03-13T03:57:46.163Z,99587.08
2019-03-13T04:00:15.798Z,99601.95
2019-03-13T04:02:45.360Z,99590.13
2019-03-13T04:05:15.107Z,99594.19
2019-03-13T04:07:44.689Z,99591.23
2019-03-13T04:10:14.283Z,99586.41
2019-03-13T04:12:43.793Z,99594.52
2019-03-13T04:15:13.482Z,99578.72
2019-03-13T04:17:43.052Z,99574.25
2019-03-13T04:20:12.588Z,99579.72
2019-03-13T04:22:42.189Z,99576.71
2019-03-13T04:25:34.036Z,99573.13
2019-03-13T04:28:03.613Z,99571.78
2019-03-13T04:30:33.140Z,99568.92
2019-03-13T04:33:02.713Z,99583.31
2019-03-13T04:35:33.202Z,99569.09
2019-03-13T04:38:02.715Z,99568.66
2019-03-13T04:40:32.305Z,99584.24
2019-03-13T04:43:01.854Z,99568.28
2019-03-13T04:45:32.300Z,99567.02
2019-03-13T04:48:01.803Z,99578.56
2019-03-13T04:50:31.344Z,99567.58
2019-03-13T04:53:00.928Z,99567.39
2019-03-13T04:55:30.444Z,99572.80
2019-03-13T04:57:59.950Z,99569.44
2019-03-13T05:00:29.564Z,99567.05
2019-03-13T05:02:59.057Z,99578.56
2019-03-13T05:05:51.692Z,99575.34
2019-03-13T05:08:51.353Z,99559.98
2019-03-13T05:11:20.860Z,99566.53
2019-03-13T05:13:50.355Z,99566.30
2019-03-13T05:16:19.868Z,99564.65
2019-03-13T05:18:49.700Z,99569.34
2019-03-13T05:21:19.273Z,99576.44
2019-03-13T05:23:48.772Z,99581.41
2019-03-13T05:26:18.299Z,99573.38
2019-03-13T05:28:47.803Z,99570.61
2019-03-13T05:31:17.303Z,99574.17
2019-03-13T05:33:46.806Z,99573.70
2019-03-13T05:36:17.134Z,99575.92
2019-03-13T05:38:46.798Z,99570.81
2019-03-13T05:41:16.401Z,99576.23
2019-03-13T05:43:45.908Z,99562.48
2019-03-13T05:46:15.460Z,99570.37
2019-03-13T05:48:44.986Z,99583.70
2019-03-13T05:51:14.516Z,99573.00
2019-03-13T05:53:44.040Z,99571.52
2019-03-13T05:56:13.570Z,99567.20
2019-03-13T05:58:43.076Z,99573.83
2019-03-13T06:01:12.586Z,99576.47
2019-03-13T06:03:42.092Z,99560.95
2019-03-13T06:06:11.613Z,99558.39
2019-03-13T06:08:41.124Z,99561.37
2019-03-13T06:11:10.672Z,99565.59
2019-03-13T06:13:40.782Z,99567.55
2019-03-13T06:16:11.281Z,99551.31
2019-03-13T06:18:40.811Z,99559.84
2019-03-13T06:21:10.396Z,99554.64
2019-03-13T06:23:40.896Z,99551.09
2019-03-13T06:26:10.420Z,99544.34
2019-03-13T06:28:40.043Z,99545.25
2019-03-13T06:31:09.551Z,99551.91
2019-03-13T06:33:40.053Z,99549.25
2019-03-13T06:36:09.567Z,99550.80
2019-03-13T06:38:39.120Z,99554.33
2019-03-13T06:41:08.664Z,99551.09
2019-03-13T06:43:38.940Z,99546.83
2019-03-13T06:46:08.465Z,99560.67
2019-03-13T06:48:37.986Z,99570.91
2019-03-13T06:51:07.499Z,99571.45
2019-03-13T06:53:37.012Z,99557.24
2019-03-13T06:56:06.522Z,99548.01
2019-03-13T06:58:45.105Z,99557.03
2019-03-13T07:01:22.441Z,99557.03
2019-03-13T07:04:16.960Z,99557.98
2019-03-13T07:06:59.740Z,99544.08
2019-03-13T07:09:57.169Z,99550.42
2019-03-13T07:12:37.921Z,99543.72
2019-03-13T07:15:29.906Z,99526.05
2019-03-13T07:18:11.441Z,99513.69
2019-03-13T07:20:56.101Z,99535.96
2019-03-13T07:23:35.545Z,99536.29
2019-03-13T07:26:16.408Z,99528.70
2019-03-13T07:28:55.363Z,99527.22
2019-03-13T07:31:40.915Z,99528.45
2019-03-13T07:34:43.616Z,99518.41
2019-03-13T07:37:39.538Z,99520.50
2019-03-13T07:40:19.181Z,99530.73
2019-03-13T07:43:00.772Z,99521.25
2019-03-13T07:45:39.891Z,99535.11
2019-03-13T07:48:32.030Z,99530.38
2019-03-13T07:51:21.560Z,99532.97
2019-03-13T07:54:13.248Z,99539.66
2019-03-13T07:57:01.814Z,99529.36
2019-03-13T07:59:44.815Z,99526.59
2019-03-13T08:02:36.213Z,99513.95
2019-03-13T08:05:25.348Z,99502.77
2019-03-13T08:08:13.896Z,99508.73
2019-03-13T08:10:49.490Z,99518.03
2019-03-13T08:13:29.847Z,99517.61
2019-03-13T08:16:21.660Z,99517.97
2019-03-13T08:19:19.529Z,99492.40
2019-03-13T08:22:13.167Z,99511.42
2019-03-13T08:25:08.052Z,99515.36
2019-03-13T08:27:46.955Z,99513.06
2019-03-13T08:30:26.995Z,99514.91
2019-03-13T08:33:05.941Z,99504.75
2019-03-13T08:35:56.016Z,99503.77
2019-03-13T08:38:43.279Z,99506.34
2019-03-13T08:41:34.906Z,99496.92
2019-03-13T08:44:41.938Z,99500.30
2019-03-13T08:47:22.166Z,99508.02
2019-03-13T08:50:06.350Z,99507.02
2019-03-13T08:52:47.829Z,99493.95
2019-03-13T08:55:28.302Z,99471.71
2019-03-13T08:58:09.278Z,99484.21
2019-03-13T09:01:02.942Z,99485.96
2019-03-13T09:03:42.785Z,99480.05
2019-03-13T09:06:35.530Z,99471.45
2019-03-13T09:09:28.558Z,99423.97
2019-03-13T09:12:04.850Z,99476.38
2019-03-13T09:14:44.304Z,99488.19
2019-03-13T09:17:28.544Z,99474.16
2019-03-13T09:20:15.671Z,99473.33
2019-03-13T09:23:04.235Z,99485.25
2019-03-13T09:25:52.874Z,99472.96
2019-03-13T09:28:36.820Z,99470.40
2019-03-13T09:31:25.743Z,99466.81
2019-03-13T09:34:13.708Z,99473.26
2019-03-13T09:36:55.556Z,99471.98
2019-03-13T09:39:43.245Z,99465.73
2019-03-13T09:42:34.891Z,99464.83
2019-03-13T09:45:33.147Z,99474.60
2019-03-13T09:48:15.092Z,99470.29
2019-03-13T09:50:53.247Z,99480.00
2019-03-13T09:53:40.362Z,99460.59
2019-03-13T09:56:27.481Z,99472.17
2019-03-13T09:59:10.513Z,99459.75
2019-03-13T10:01:50.452Z,99470.26
2019-03-13T10:04:29.819Z,99472.70
2019-03-13T10:07:09.123Z,99471.09
2019-03-13T10:09:46.316Z,99458.48
2019-03-13T10:12:23.690Z,99454.52
2019-03-13T10:15:01.309Z,99454.91
2019-03-13T10:17:41.030Z,99458.04
2019-03-13T10:20:19.052Z,99447.48
2019-03-13T10:23:06.307Z,99438.23
2019-03-13T10:25:41.979Z,99427.80
2019-03-13T10:28:17.367Z,99440.52
2019-03-13T10:30:54.031Z,99444.92
2019-03-13T10:33:45.625Z,99438.28
2019-03-13T10:36:36.783Z,99441.96
2019-03-13T10:39:21.730Z,99440.83
2019-03-13T10:42:12.668Z,99433.06
2019-03-13T10:44:48.804Z,99434.98
2019-03-13T10:47:39.408Z,99435.39
2019-03-13T10:50:23.354Z,99443.20
2019-03-13T10:53:21.099Z,99430.78
2019-03-13T10:56:04.975Z,99437.52
2019-03-13T10:58:45.924Z,99429.84
2019-03-13T11:01:36.342Z,99431.97
2019-03-13T11:04:12.889Z,99440.64
2019-03-13T11:06:54.827Z,99446.03
2019-03-13T11:09:44.930Z,99449.02
2019-03-13T11:12:38.149Z,99441.64
2019-03-13T11:15:25.884Z,99439.17
2019-03-13T11:18:13.341Z,99434.96
2019-03-13T11:21:05.973Z,99440.11
2019-03-13T11:23:44.574Z,99436.27
2019-03-13T11:26:45.392Z,99440.90
2019-03-13T11:29:23.828Z,99445.89
2019-03-13T11:32:03.371Z,99460.00
2019-03-13T11:34:50.607Z,99443.81
2019-03-13T11:37:27.373Z,99447.36
2019-03-13T11:40:24.922Z,99440.17
2019-03-13T11:43:12.528Z,99453.95
2019-03-13T11:46:01.923Z,99440.24
2019-03-13T11:48:50.476Z,99439.83
2019-03-13T11:51:34.231Z,99440.17
2019-03-13T11:54:14.470Z,99418.59
2019-03-13T11:57:06.884Z,99439.83
2019-03-13T11:59:59.683Z,99435.14
2019-03-13T12:02:39.309Z,99436.21
2019-03-13T12:05:19.866Z,99431.06
2019-03-13T12:08:02.390Z,99428.98
2019-03-13T12:10:56.807Z,99427.38
2019-03-13T12:13:45.350Z,99409.83
2019-03-13T12:16:43.029Z,99416.41
2019-03-13T12:19:43.742Z,99408.31
2019-03-13T12:22:35.461Z,99414.99
2019-03-13T12:25:23.818Z,99399.87
2019-03-13T12:28:21.469Z,99407.87
2019-03-13T12:30:59.469Z,99389.59
2019-03-13T12:33:36.263Z,99389.94
2019-03-13T12:36:27.702Z,99381.69
2019-03-13T12:39:05.869Z,99376.14
2019-03-13T12:41:45.831Z,99378.74
2019-03-13T12:44:24.949Z,99377.39
2019-03-13T12:47:01.934Z,99372.89
2019-03-13T12:49:48.874Z,99370.74
2019-03-13T12:52:38.935Z,99348.33
2019-03-13T12:55:19.591Z,99355.75
2019-03-13T12:58:11.434Z,99359.06
2019-03-13T13:00:59.667Z,99353.98
2019-03-13T13:03:39.122Z,99363.34
2019-03-13T13:06:38.142Z,99361.09
2019-03-13T13:09:32.556Z,99352.73
2019-03-13T13:12:20.137Z,99350.06
2019-03-13T13:15:11.543Z,99341.45
2019-03-13T13:17:54.170Z,99348.17
2019-03-13T13:20:24.180Z,99344.62
2019-03-13T13:22:53.903Z,99345.72
2019-03-13T13:25:23.435Z,99336.64
2019-03-13T13:27:52.946Z,99333.25
2019-03-13T13:30:22.457Z,99324.53
2019-03-13T13:32:51.990Z,99316.84
2019-03-13T13:35:21.510Z,99327.01
2019-03-13T13:37:51.025Z,99314.69
2019-03-13T13:40:20.537Z,99316.43
2019-03-13T13:42:50.050Z,99321.53
2019-03-13T13:45:56.800Z,99310.06
2019-03-13T13:48:26.307Z,99303.62
2019-03-13T13:50:56.829Z,99296.43
2019-03-13T13:53:26.345Z,99291.66
2019-03-13T13:55:56.028Z,99290.39
2019-03-13T13:58:28.394Z,99314.89
2019-03-13T14:00:56.840Z,99309.48
2019-03-13T14:03:26.351Z,99321.70
2019-03-13T14:05:55.874Z,99314.37
2019-03-13T14:08:25.399Z,99323.06
2019-03-13T14:10:54.901Z,99332.23
2019-03-13T14:13:25.412Z,99333.81
2019-03-13T14:15:54.957Z,99333.16
2019-03-13T14:18:24.481Z,99321.36
2019-03-13T14:20:54.003Z,99331.88
2019-03-13T14:23:23.532Z,99331.83
2019-03-13T14:25:53.073Z,99344.52
2019-03-13T14:28:22.536Z,99342.80
2019-03-13T14:30:52.472Z,99350.52
2019-03-13T14:33:22.005Z,99350.12
2019-03-13T14:35:51.510Z,99334.53
2019-03-13T14:38:21.021Z,99338.17
2019-03-13T14:40:50.534Z,99347.32
2019-03-13T14:43:20.127Z,99347.05
2019-03-13T14:45:49.667Z,99357.98
2019-03-13T14:48:19.197Z,99358.50
2019-03-13T14:50:48.702Z,99360.70
2019-03-13T14:53:18.213Z,99364.06
2019-03-13T14:55:47.747Z,99364.09
2019-03-13T14:58:17.254Z,99363.22
2019-03-13T15:00:46.769Z,99368.13
2019-03-13T15:03:16.275Z,99374.55
2019-03-13T15:05:45.797Z,99368.10
2019-03-13T15:08:15.304Z,99353.16
2019-03-13T15:10:44.800Z,99328.96
2019-03-13T15:13:15.299Z,99339.59
2019-03-13T15:15:44.804Z,99351.50
2019-03-13T15:18:14.639Z,99338.31
2019-03-13T15:20:44.138Z,99339.14
2019-03-13T15:23:13.659Z,99341.39
2019-03-13T15:25:43.155Z,99341.35
2019-03-13T15:28:12.682Z,99331.30
2019-03-13T15:30:42.199Z,99338.90
2019-03-13T15:33:11.729Z,99332.92
2019-03-13T15:35:41.235Z,99329.97
2019-03-13T15:38:10.760Z,99327.88
2019-03-13T15:40:40.272Z,99323.60
2019-03-13T15:43:09.781Z,99331.72
2019-03-13T15:45:40.201Z,99335.16
2019-03-13T15:48:09.722Z,99317.77
2019-03-13T15:50:39.243Z,99327.27
2019-03-13T15:53:08.759Z,99326.87
2019-03-13T15:55:38.272Z,99322.27
2019-03-13T15:58:07.793Z,99321.28
2019-03-13T16:00:37.392Z,99315.82
2019-03-13T16:03:07.013Z,99317.13
2019-03-13T16:05:36.535Z,99326.02
2019-03-13T16:08:06.072Z,99325.50
2019-03-13T16:10:35.607Z,99330.59
2019-03-13T16:13:05.841Z,99326.02
2019-03-13T16:15:37.029Z,99314.89
2019-03-13T16:18:06.624Z,99317.73
2019-03-13T16:20:36.205Z,99324.64
2019-03-13T16:23:05.714Z,99310.61
2019-03-13T16:25:35.323Z,99335.25
2019-03-13T16:28:04.916Z,99339.59
2019-03-13T16:30:37.846Z,99333.36
2019-03-13T16:33:07.344Z,99333.18
2019-03-13T16:35:37.837Z,99329.87
2019-03-13T16:38:07.344Z,99329.91
2019-03-13T16:40:36.869Z,99332.80
2019-03-13T16:43:06.455Z,99351.73
2019-03-13T16:45:35.955Z,99347.56
2019-03-13T16:48:05.784Z,99357.69
2019-03-13T16:50:36.964Z,99347.15
2019-03-13T16:53:06.539Z,99365.86
2019-03-13T16:55:36.051Z,99361.55
2019-03-13T16:58:05.637Z,99354.69
2019-03-13T17:00:35.283Z,99351.13
2019-03-13T17:03:05.204Z,99354.59
2019-03-13T17:05:35.480Z,99349.88
2019-03-13T17:08:05.020Z,99351.09
2019-03-13T17:10:34.519Z,99355.17
2019-03-13T17:13:05.541Z,99351.84
2019-03-13T17:15:35.356Z,99362.41
2019-03-13T17:18:05.145Z,99358.84
2019-03-13T17:20:34.715Z,99354.21
2019-03-13T17:23:05.422Z,99346.27
2019-03-13T17:25:34.945Z,99343.41
2019-03-13T17:28:04.551Z,99350.67
2019-03-13T17:30:34.156Z,99348.03
2019-03-13T17:33:03.770Z,99363.22
2019-03-13T17:35:33.309Z,99363.22
2019-03-13T17:38:02.894Z,99377.20
2019-03-13T17:40:32.432Z,99403.59
2019-03-13T17:43:02.007Z,99419.06
2019-03-13T17:45:31.528Z,99406.36
2019-03-13T17:48:01.036Z,99392.02
2019-03-13T17:50:30.549Z,99398.32
2019-03-13T17:53:00.080Z,99404.43
2019-03-13T17:55:29.635Z,99406.78
2019-03-13T17:57:59.148Z,99403.49
2019-03-13T18:00:31.706Z,99383.23
2019-03-13T18:03:01.238Z,99367.20
2019-03-13T18:05:30.848Z,99370.13
2019-03-13T18:08:00.357Z,99380.20
2019-03-13T18:10:30.059Z,99384.88
2019-03-13T18:12:59.930Z,99388.34
2019-03-13T18:15:29.457Z,99389.32
2019-03-13T18:17:58.975Z,99397.36
2019-03-13T18:20:29.353Z,99400.15
2019-03-13T18:22:58.894Z,99404.67
2019-03-13T18:25:28.390Z,99408.95
2019-03-13T18:27:58.197Z,99409.39
2019-03-13T18:30:27.797Z,99411.43
2019-03-13T18:32:57.377Z,99413.86
2019-03-13T18:35:26.953Z,99415.09
2019-03-13T18:37:56.474Z,99420.05
2019-03-13T18:40:26.085Z,99425.56
2019-03-13T18:42:55.772Z,99412.06
2019-03-13T18:45:25.810Z,99419.68
2019-03-13T18:47:56.388Z,99423.75
2019-03-13T18:50:26.094Z,99417.80
2019-03-13T18:52:55.700Z,99432.51
2019-03-13T18:55:25.246Z,99422.99
2019-03-13T18:57:54.754Z,99430.05
2019-03-13T19:00:26.321Z,99430.85
2019-03-13T19:02:55.910Z,99433.52
2019-03-13T19:05:25.449Z,99435.27
2019-03-13T19:07:54.959Z,99435.44
2019-03-13T19:10:24.696Z,99435.08
2019-03-13T19:12:54.233Z,99432.61
2019-03-13T19:15:24.095Z,99438.00
2019-03-13T19:17:53.776Z,99444.65
2019-03-13T19:20:24.505Z,99454.07
2019-03-13T19:22:54.038Z,99440.55
2019-03-13T19:25:24.574Z,99450.82
2019-03-13T19:27:55.202Z,99457.45
2019-03-13T19:30:26.553Z,99452.22
2019-03-13T19:32:56.213Z,99461.05
2019-03-13T19:35:25.739Z,99471.59
2019-03-13T19:37:55.656Z,99474.92
2019-03-13T19:40:25.213Z,99473.95
2019-03-13T19:42:54.860Z,99487.20
2019-03-13T19:45:27.253Z,99478.11
2019-03-13T19:47:56.780Z,99496.47
2019-03-13T19:50:28.208Z,99482.78
2019-03-13T19:52:57.532Z,99493.22
2019-03-13T19:55:27.067Z,99495.89
2019-03-13T19:57:56.751Z,99487.32
2019-03-13T20:00:26.354Z,99495.09
2019-03-13T20:03:00.431Z,99504.83
2019-03-13T20:05:27.490Z,99507.03
2019-03-13T20:07:57.020Z,99509.55
2019-03-13T20:10:26.540Z,99517.69
2019-03-13T20:12:56.088Z,99509.28
2019-03-13T20:15:25.746Z,99519.46
2019-03-13T20:17:55.338Z,99522.41
2019-03-13T20:20:24.884Z,99523.41
2019-03-13T20:22:57.194Z,99524.44
2019-03-13T20:25:26.991Z,99528.20
2019-03-13T20:27:56.580Z,99532.80
2019-03-13T20:30:26.183Z,99534.98
2019-03-13T20:32:55.795Z,99534.85
2019-03-13T20:35:25.397Z,99544.79
2019-03-13T20:37:54.945Z,99550.73
2019-03-13T20:40:24.866Z,99550.73
2019-03-13T20:42:54.548Z,99556.50
2019-03-13T20:45:24.146Z,99565.14
2019-03-13T20:47:54.102Z,99574.75
2019-03-13T20:50:36.003Z,99580.70
2019-03-13T20:52:55.118Z,99575.40
2019-03-13T20:55:24.729Z,99565.78
2019-03-13T20:57:54.358Z,99571.17
2019-03-13T21:00:24.306Z,99569.80
2019-03-13T21:02:54.070Z,99584.16
2019-03-13T21:05:23.690Z,99591.72
2019-03-13T21:07:53.527Z,99581.36
2019-03-13T21:10:23.110Z,99589.56
2019-03-13T21:12:52.770Z,99589.78
2019-03-13T21:15:22.482Z,99592.94
2019-03-13T21:17:52.167Z,99597.19
2019-03-13T21:20:22.046Z,99599.08
2019-03-13T21:22:51.637Z,99601.91
2019-03-13T21:25:21.159Z,99601.46
2019-03-13T21:27:50.686Z,99604.45
2019-03-13T21:30:21.945Z,99601.08
2019-03-13T21:32:52.413Z,99608.76
2019-03-13T21:35:22.052Z,99617.53
2019-03-13T21:37:51.659Z,99620.34
2019-03-13T21:40:21.270Z,99635.39
2019-03-13T21:42:54.280Z,99631.25
2019-03-13T21:45:23.143Z,99634.23
2019-03-13T21:47:52.978Z,99637.13
2019-03-13T21:50:22.869Z,99648.17
2019-03-13T21:52:52.417Z,99649.50
2019-03-13T21:55:21.998Z,99640.33
2019-03-13T21:57:52.494Z,99651.53
2019-03-13T22:00:23.270Z,99667.36
2019-03-13T22:02:52.887Z,99659.78
2019-03-13T22:05:27.369Z,99658.70
2019-03-13T22:07:54.568Z,99667.97
2019-03-13T22:10:24.088Z,99675.45
2019-03-13T22:12:53.653Z,99689.93
2019-03-13T22:15:23.180Z,99704.30
2019-03-13T22:17:52.761Z,99707.70
2019-03-13T22:20:22.433Z,99717.68
2019-03-13T22:22:51.953Z,99717.92
2019-03-13T22:25:21.522Z,99724.44
2019-03-13T22:27:51.032Z,99726.05
2019-03-13T22:30:21.070Z,99712.50
2019-03-13T22:32:50.676Z,99732.37
2019-03-13T22:35:20.263Z,99742.23
2019-03-13T22:37:50.054Z,99760.37
2019-03-13T22:40:19.828Z,99756.31
2019-03-13T22:42:49.363Z,99759.22
2019-03-13T22:45:18.937Z,99748.63
2019-03-13T22:47:48.429Z,99753.84
2019-03-13T22:50:18.241Z,99753.44
2019-03-13T22:52:47.747Z,99748.60
2019-03-13T22:55:18.296Z,99753.02
2019-03-13T22:57:47.976Z,99753.12
2019-03-13T23:00:35.956Z,99753.88
2019-03-13T23:03:06.042Z,99760.58
2019-03-13T23:05:36.215Z,99763.92
2019-03-13T23:08:05.752Z,99766.06
2019-03-13T23:10:35.445Z,99767.30
2019-03-13T23:13:04.966Z,99775.63
2019-03-13T23:15:34.457Z,99766.75
2019-03-13T23:18:03.975Z,99767.78
2019-03-13T23:20:33.485Z,99776.63
2019-03-13T23:23:02.984Z,99769.33
2019-03-13T23:25:32.629Z,99786.92
2019-03-13T23:28:02.071Z,99790.51
2019-03-13T23:30:31.702Z,99785.16
2019-03-13T23:33:01.144Z,99811.00
2019-03-13T23:35:30.645Z,99808.38
2019-03-13T23:38:00.151Z,99814.09
2019-03-13T23:40:29.651Z,99830.01
2019-03-13T23:42:59.166Z,99833.73
2019-03-13T23:45:28.687Z,99839.98
2019-03-13T23:47:58.183Z,99835.85
2019-03-13T23:50:27.709Z,99837.88
2019-03-13T23:52:57.232Z,99836.06
2019-03-13T23:55:26.829Z,99846.66
2019-03-13T23:57:56.332Z,99857.01
